createdAt,value
2023-05-25T00:00:19.098Z,19.91
2023-05-25T00:02:18.283Z,21.30
2023-05-25T00:03:52.171Z,21.73
2023-05-25T00:05:27.677Z,21.05
2023-05-25T00:06:59.478Z,21.21
2023-05-25T00:08:23.439Z,20.53
2023-05-25T00:09:47.584Z,20.44
2023-05-25T00:11:23.518Z,19.92
2023-05-25T00:13:05.701Z,19.27
2023-05-25T00:14:39.137Z,20.10
2023-05-25T00:16:03.137Z,21.08
2023-05-25T00:17:43.883Z,19.12
2023-05-25T00:19:13.098Z,20.08
2023-05-25T00:20:59.211Z,20.85
2023-05-25T00:22:34.324Z,19.71
2023-05-25T00:24:05.860Z,19.48
2023-05-25T00:25:29.945Z,19.64
2023-05-25T00:26:54.038Z,19.73
2023-05-25T00:28:38.105Z,20.35
2023-05-25T00:30:11.369Z,20.17
2023-05-25T00:31:45.045Z,20.58
2023-05-25T00:33:06.902Z,20.63
2023-05-25T00:34:31.634Z,21.18
2023-05-25T00:35:56.250Z,20.54
2023-05-25T00:37:36.861Z,19.62
2023-05-25T00:39:01.280Z,19.73
2023-05-25T00:40:22.908Z,19.55
2023-05-25T00:41:45.180Z,19.50
2023-05-25T00:43:08.087Z,19.85
2023-05-25T00:44:32.086Z,19.69
2023-05-25T00:46:01.575Z,20.02
2023-05-25T00:47:23.439Z,20.76
2023-05-25T00:48:44.941Z,19.31
2023-05-25T00:50:20.974Z,19.65
2023-05-25T00:51:46.586Z,19.89
2023-05-25T00:53:08.920Z,18.99
2023-05-25T00:54:42.411Z,19.51
2023-05-25T00:56:04.215Z,19.86
2023-05-25T00:57:26.221Z,20.55
2023-05-25T00:58:48.373Z,19.84
2023-05-25T01:00:22.595Z,20.12
2023-05-25T01:01:56.720Z,18.19
2023-05-25T01:03:21.707Z,19.41
2023-05-25T01:04:45.542Z,18.74
2023-05-25T01:06:17.297Z,18.63
2023-05-25T01:07:50.612Z,18.30
2023-05-25T01:09:23.756Z,19.86
2023-05-25T01:10:52.818Z,19.41
2023-05-25T01:12:17.492Z,18.83
2023-05-25T01:13:39.254Z,19.67
2023-05-25T01:15:21.537Z,19.18
2023-05-25T01:16:45.994Z,19.81
2023-05-25T01:18:19.822Z,18.57
2023-05-25T01:19:49.545Z,17.97
2023-05-25T01:21:36.097Z,18.59
2023-05-25T01:23:10.504Z,19.23
2023-05-25T01:24:55.824Z,19.57
2023-05-25T01:26:41.312Z,18.73
2023-05-25T01:28:17.213Z,19.62
2023-05-25T01:29:50.650Z,18.65
2023-05-25T01:31:12.445Z,17.95
2023-05-25T01:32:54.050Z,17.87
2023-05-25T01:34:16.255Z,18.90
2023-05-25T01:35:56.922Z,18.73
2023-05-25T01:37:30.926Z,18.55
2023-05-25T01:39:16.392Z,19.21
2023-05-25T01:40:38.208Z,18.90
2023-05-25T01:42:31.266Z,19.32
2023-05-25T01:44:11.913Z,18.22
2023-05-25T01:45:45.889Z,18.14
2023-05-25T01:47:33.165Z,17.64
2023-05-25T01:49:04.361Z,18.38
2023-05-25T01:50:39.783Z,18.76
2023-05-25T01:52:29.706Z,18.39
2023-05-25T01:53:53.985Z,18.98
2023-05-25T01:55:39.311Z,18.15
2023-05-25T01:57:12.962Z,17.63
2023-05-25T01:58:35.223Z,18.66
2023-05-25T02:00:20.055Z,17.96
2023-05-25T02:01:53.931Z,18.62
2023-05-25T02:03:18.076Z,18.45
2023-05-25T02:04:40.354Z,18.99
2023-05-25T02:06:18.530Z,18.80
2023-05-25T02:08:14.427Z,18.42
2023-05-25T02:09:59.481Z,18.98
2023-05-25T02:11:35.656Z,20.02
2023-05-25T02:13:29.269Z,18.59
2023-05-25T02:15:14.665Z,19.98
2023-05-25T02:16:46.192Z,19.64
2023-05-25T02:18:19.823Z,19.63
2023-05-25T02:20:13.107Z,20.06
2023-05-25T02:21:57.425Z,20.16
2023-05-25T02:23:33.283Z,19.97
2023-05-25T02:25:18.328Z,19.49
2023-05-25T02:27:11.558Z,18.95
2023-05-25T02:29:06.293Z,19.05
2023-05-25T02:30:59.309Z,19.18
2023-05-25T02:32:22.438Z,19.40
2023-05-25T02:34:06.448Z,21.29
2023-05-25T02:35:47.161Z,20.43
2023-05-25T02:37:21.506Z,19.44
2023-05-25T02:38:57.704Z,19.20
2023-05-25T02:40:31.077Z,19.57
2023-05-25T02:42:17.009Z,20.25
2023-05-25T02:44:02.725Z,21.33
2023-05-25T02:45:37.759Z,19.99
2023-05-25T02:47:23.797Z,20.22
2023-05-25T02:49:04.476Z,20.09
2023-05-25T02:50:37.158Z,20.09
2023-05-25T02:52:12.845Z,19.68
2023-05-25T02:53:37.506Z,18.84
2023-05-25T02:55:06.256Z,19.57
2023-05-25T02:56:42.981Z,20.46
2023-05-25T02:58:12.012Z,21.06
2023-05-25T02:59:56.487Z,21.04
2023-05-25T03:01:42.602Z,21.52
2023-05-25T03:03:18.253Z,20.46
2023-05-25T03:04:54.809Z,20.28
2023-05-25T03:06:29.578Z,19.02
2023-05-25T03:08:07.253Z,19.93
2023-05-25T03:09:42.104Z,20.02
2023-05-25T03:11:15.534Z,19.63
2023-05-25T03:12:48.097Z,20.72
2023-05-25T03:14:21.903Z,21.09
2023-05-25T03:16:03.091Z,20.08
2023-05-25T03:17:48.129Z,19.04
2023-05-25T03:19:37.919Z,18.33
2023-05-25T03:21:11.596Z,18.86
2023-05-25T03:22:53.103Z,18.93
2023-05-25T03:24:27.057Z,18.96
2023-05-25T03:26:14.536Z,19.10
2023-05-25T03:27:37.195Z,19.77
2023-05-25T03:29:11.363Z,19.85
2023-05-25T03:30:40.867Z,20.98
2023-05-25T03:32:08.095Z,19.36
2023-05-25T03:33:42.549Z,19.27
2023-05-25T03:35:04.561Z,20.07
2023-05-25T03:36:38.689Z,21.13
2023-05-25T03:38:15.185Z,22.34
2023-05-25T03:39:49.040Z,24.27
2023-05-25T03:41:21.177Z,20.87
2023-05-25T03:42:42.920Z,18.28
2023-05-25T03:44:12.533Z,17.49
2023-05-25T03:45:48.577Z,17.30
2023-05-25T03:47:33.896Z,17.44
2023-05-25T03:49:19.920Z,17.77
2023-05-25T03:51:04.450Z,18.04
2023-05-25T03:52:38.239Z,18.66
2023-05-25T03:54:11.911Z,18.96
2023-05-25T03:55:57.407Z,17.71
2023-05-25T03:57:43.122Z,16.29
2023-05-25T03:59:28.433Z,16.30
2023-05-25T04:01:04.308Z,16.08
2023-05-25T04:02:39.997Z,16.29
2023-05-25T04:04:20.921Z,17.06
2023-05-25T04:06:14.289Z,16.64
2023-05-25T04:07:59.601Z,17.39
2023-05-25T04:09:34.322Z,17.41
2023-05-25T04:11:19.468Z,16.04
2023-05-25T04:13:01.284Z,15.64
2023-05-25T04:14:46.354Z,15.71
2023-05-25T04:16:31.817Z,17.86
2023-05-25T04:18:08.418Z,18.14
2023-05-25T04:19:30.882Z,18.13
2023-05-25T04:21:00.161Z,18.01
2023-05-25T04:22:45.802Z,17.16
2023-05-25T04:24:21.849Z,17.12
2023-05-25T04:25:54.836Z,17.68
2023-05-25T04:27:20.367Z,16.51
2023-05-25T04:28:58.393Z,17.40
2023-05-25T04:30:38.407Z,18.90
2023-05-25T04:32:09.638Z,18.68
2023-05-25T04:34:24.831Z,18.92
2023-05-25T04:36:18.406Z,18.49
2023-05-25T04:37:48.444Z,18.75
2023-05-25T04:39:21.888Z,18.62
2023-05-25T04:40:48.494Z,18.05
2023-05-25T04:42:24.786Z,18.57
2023-05-25T04:44:12.939Z,19.01
2023-05-25T04:45:51.066Z,18.98
2023-05-25T04:47:36.700Z,19.11
2023-05-25T04:49:22.817Z,18.23
2023-05-25T04:51:04.726Z,16.96
2023-05-25T04:52:40.190Z,17.26
2023-05-25T04:54:15.948Z,16.77
2023-05-25T04:55:59.244Z,17.81
2023-05-25T04:57:28.630Z,18.53
2023-05-25T04:59:14.876Z,19.09
2023-05-25T05:00:44.500Z,19.36
2023-05-25T05:02:37.324Z,18.57
2023-05-25T05:04:24.496Z,18.83
2023-05-25T05:05:56.036Z,17.00
2023-05-25T05:07:32.987Z,18.63
2023-05-25T05:09:19.858Z,18.97
2023-05-25T05:10:56.432Z,18.73
2023-05-25T05:12:42.322Z,19.18
2023-05-25T05:14:27.725Z,19.24
2023-05-25T05:16:01.545Z,19.51
2023-05-25T05:17:28.323Z,18.87
2023-05-25T05:19:13.863Z,18.08
2023-05-25T05:20:51.076Z,18.65
2023-05-25T05:22:25.114Z,19.28
2023-05-25T05:24:00.949Z,18.68
2023-05-25T05:25:36.889Z,19.66
2023-05-25T05:27:22.508Z,20.01
2023-05-25T05:28:52.500Z,20.15
2023-05-25T05:30:28.263Z,21.47
2023-05-25T05:32:04.910Z,20.81
2023-05-25T05:33:50.588Z,20.17
2023-05-25T05:35:37.261Z,18.48
2023-05-25T05:37:09.227Z,20.12
2023-05-25T05:38:42.941Z,20.88
2023-05-25T05:40:12.916Z,21.52
2023-05-25T05:42:00.455Z,21.38
2023-05-25T05:43:45.625Z,21.41
2023-05-25T05:45:20.149Z,18.80
2023-05-25T05:46:51.851Z,19.37
2023-05-25T05:48:13.794Z,19.10
2023-05-25T05:49:47.534Z,18.76
2023-05-25T05:51:21.356Z,20.09
2023-05-25T05:52:57.157Z,19.75
2023-05-25T05:54:33.379Z,18.49
2023-05-25T05:56:15.660Z,18.52
2023-05-25T05:57:49.323Z,16.96
2023-05-25T05:59:23.157Z,17.66
2023-05-25T06:01:10.472Z,17.28
2023-05-25T06:02:44.528Z,17.29
2023-05-25T06:04:21.041Z,17.58
2023-05-25T06:05:56.708Z,17.06
2023-05-25T06:07:39.652Z,17.08
2023-05-25T06:09:01.474Z,17.39
2023-05-25T06:10:35.350Z,16.90
2023-05-25T06:12:08.833Z,16.77
2023-05-25T06:13:54.041Z,16.18
2023-05-25T06:15:39.744Z,17.44
2023-05-25T06:17:11.411Z,16.32
2023-05-25T06:18:47.789Z,17.23
2023-05-25T06:20:09.997Z,18.27
2023-05-25T06:21:34.006Z,19.09
2023-05-25T06:23:20.577Z,20.90
2023-05-25T06:24:54.571Z,20.58
2023-05-25T06:26:35.460Z,21.85
2023-05-25T06:28:09.646Z,23.71
2023-05-25T06:29:36.034Z,24.46
2023-05-25T06:31:09.672Z,24.08
2023-05-25T06:32:50.590Z,23.32
2023-05-25T06:34:24.308Z,24.36
2023-05-25T06:36:00.352Z,23.90
2023-05-25T06:37:47.124Z,22.72
2023-05-25T06:39:12.893Z,22.40
2023-05-25T06:40:45.162Z,22.05
2023-05-25T06:42:06.984Z,22.95
2023-05-25T06:43:43.093Z,22.65
2023-05-25T06:45:11.105Z,22.00
2023-05-25T06:46:41.440Z,20.78
2023-05-25T06:48:13.199Z,20.90
2023-05-25T06:49:37.895Z,21.79
2023-05-25T06:51:10.897Z,19.66
2023-05-25T06:52:44.296Z,19.31
2023-05-25T06:54:08.548Z,18.88
2023-05-25T06:55:55.798Z,18.28
2023-05-25T06:57:22.448Z,17.14
2023-05-25T06:58:48.863Z,18.21
2023-05-25T07:00:12.885Z,18.43
2023-05-25T07:01:36.881Z,17.86
2023-05-25T07:03:06.618Z,16.67
2023-05-25T07:04:30.462Z,16.77
2023-05-25T07:06:03.098Z,17.54
2023-05-25T07:07:27.372Z,17.62
2023-05-25T07:09:03.190Z,16.87
2023-05-25T07:10:44.763Z,17.92
2023-05-25T07:12:08.788Z,19.18
2023-05-25T07:13:30.900Z,19.28
2023-05-25T07:14:57.204Z,18.35
2023-05-25T07:16:26.389Z,17.82
2023-05-25T07:17:47.827Z,17.58
2023-05-25T07:19:12.118Z,16.78
2023-05-25T07:20:34.393Z,16.85
2023-05-25T07:22:10.041Z,16.56
2023-05-25T07:23:33.777Z,16.58
2023-05-25T07:25:06.936Z,16.24
2023-05-25T07:26:28.738Z,16.78
2023-05-25T07:28:02.228Z,16.13
2023-05-25T07:29:38.210Z,16.10
2023-05-25T07:31:02.479Z,16.17
2023-05-25T07:32:47.754Z,16.57
2023-05-25T07:34:21.085Z,16.34
2023-05-25T07:35:54.501Z,16.86
2023-05-25T07:37:35.446Z,16.97
2023-05-25T07:39:01.792Z,16.16
2023-05-25T07:40:28.190Z,16.85
2023-05-25T07:41:50.094Z,15.90
2023-05-25T07:43:11.714Z,16.87
2023-05-25T07:44:36.042Z,16.24
2023-05-25T07:46:09.893Z,17.09
2023-05-25T07:47:43.447Z,16.88
2023-05-25T07:49:13.138Z,16.75
2023-05-25T07:50:46.726Z,16.55
2023-05-25T07:52:27.965Z,16.55
2023-05-25T07:53:54.172Z,16.99
2023-05-25T07:55:27.924Z,16.72
2023-05-25T07:56:52.064Z,16.43
2023-05-25T07:58:28.938Z,15.82
2023-05-25T08:00:09.358Z,16.92
2023-05-25T08:01:39.484Z,16.64
2023-05-25T08:03:13.644Z,15.86
2023-05-25T08:04:35.665Z,15.60
2023-05-25T08:06:20.852Z,15.74
2023-05-25T08:07:50.651Z,15.43
2023-05-25T08:09:26.908Z,15.96
2023-05-25T08:11:17.385Z,15.00
2023-05-25T08:13:02.590Z,15.63
2023-05-25T08:14:38.366Z,13.81
2023-05-25T08:16:11.836Z,15.22
2023-05-25T08:17:33.615Z,15.37
2023-05-25T08:18:59.907Z,14.53
2023-05-25T08:20:36.579Z,14.63
2023-05-25T08:22:10.098Z,14.35
2023-05-25T08:23:43.049Z,14.47
2023-05-25T08:25:18.469Z,15.01
2023-05-25T08:26:54.395Z,14.75
2023-05-25T08:28:32.113Z,14.97
2023-05-25T08:30:10.681Z,14.64
2023-05-25T08:31:56.793Z,14.09
2023-05-25T08:33:31.827Z,13.93
2023-05-25T08:35:08.365Z,14.24
2023-05-25T08:36:45.759Z,13.76
2023-05-25T08:38:36.285Z,14.74
2023-05-25T08:40:09.563Z,13.85
2023-05-25T08:41:45.573Z,14.47
2023-05-25T08:43:28.154Z,13.31
2023-05-25T08:45:26.359Z,14.42
2023-05-25T08:47:07.668Z,14.92
2023-05-25T08:48:52.787Z,13.80
2023-05-25T08:50:29.863Z,14.00
2023-05-25T08:52:10.434Z,14.49
2023-05-25T08:53:32.506Z,14.30
2023-05-25T08:55:08.964Z,14.23
2023-05-25T08:56:44.955Z,14.02
2023-05-25T08:58:18.628Z,14.13
2023-05-25T08:59:52.073Z,14.43
2023-05-25T09:01:14.211Z,13.99
2023-05-25T09:02:48.182Z,14.10
2023-05-25T09:04:33.688Z,14.58
2023-05-25T09:05:58.034Z,15.20
2023-05-25T09:07:26.976Z,14.97
2023-05-25T09:08:48.934Z,14.36
2023-05-25T09:10:11.310Z,13.74
2023-05-25T09:11:39.784Z,13.11
2023-05-25T09:13:19.080Z,13.54
2023-05-25T09:14:47.729Z,13.27
2023-05-25T09:16:11.137Z,14.33
2023-05-25T09:17:32.601Z,13.20
2023-05-25T09:18:54.523Z,13.53
2023-05-25T09:20:16.689Z,13.68
2023-05-25T09:21:38.240Z,13.34
2023-05-25T09:23:03.228Z,14.01
2023-05-25T09:24:24.914Z,13.71
2023-05-25T09:25:54.176Z,14.12
2023-05-25T09:27:30.285Z,14.45
2023-05-25T09:29:04.060Z,14.13
2023-05-25T09:30:37.616Z,14.40
2023-05-25T09:31:59.292Z,14.40
2023-05-25T09:33:28.553Z,14.41
2023-05-25T09:34:59.644Z,14.87
2023-05-25T09:36:45.027Z,14.17
2023-05-25T09:38:30.666Z,14.00
2023-05-25T09:39:52.877Z,13.66
2023-05-25T09:41:14.629Z,14.17
2023-05-25T09:42:59.405Z,14.15
2023-05-25T09:44:37.537Z,14.17
2023-05-25T09:46:18.215Z,14.50
2023-05-25T09:48:04.305Z,13.18
2023-05-25T09:49:49.554Z,13.49
2023-05-25T09:51:31.334Z,14.32
2023-05-25T09:53:11.814Z,14.89
2023-05-25T09:54:56.766Z,13.32
2023-05-25T09:56:33.514Z,13.20
2023-05-25T09:58:14.393Z,12.66
2023-05-25T09:59:48.006Z,13.87
2023-05-25T10:01:23.443Z,12.29
2023-05-25T10:02:59.272Z,13.57
2023-05-25T10:04:44.635Z,12.77
2023-05-25T10:06:25.484Z,13.37
2023-05-25T10:07:47.147Z,14.08
2023-05-25T10:09:22.753Z,14.43
2023-05-25T10:10:56.100Z,12.90
2023-05-25T10:12:41.373Z,12.64
2023-05-25T10:14:17.641Z,13.54
2023-05-25T10:15:51.135Z,14.65
2023-05-25T10:17:26.748Z,13.85
2023-05-25T10:19:02.179Z,15.23
2023-05-25T10:20:37.996Z,14.29
2023-05-25T10:22:12.127Z,14.33
2023-05-25T10:23:47.788Z,14.67
2023-05-25T10:25:28.532Z,14.18
2023-05-25T10:26:52.613Z,14.85
2023-05-25T10:28:26.781Z,13.69
2023-05-25T10:30:01.370Z,15.02
2023-05-25T10:31:35.108Z,15.77
2023-05-25T10:33:08.884Z,15.15
2023-05-25T10:34:45.018Z,15.19
2023-05-25T10:36:31.303Z,14.84
2023-05-25T10:38:00.582Z,15.60
2023-05-25T10:39:22.669Z,15.51
2023-05-25T10:40:56.164Z,14.75
2023-05-25T10:42:29.953Z,14.04
2023-05-25T10:44:03.049Z,14.80
2023-05-25T10:45:44.432Z,14.88
2023-05-25T10:47:19.180Z,14.81
2023-05-25T10:48:53.001Z,14.67
2023-05-25T10:50:26.194Z,15.02
2023-05-25T10:51:59.906Z,15.12
2023-05-25T10:53:33.336Z,14.97
2023-05-25T10:55:06.652Z,15.12
2023-05-25T10:56:33.135Z,15.17
2023-05-25T10:58:06.737Z,14.73
2023-05-25T10:59:38.855Z,14.69
2023-05-25T11:01:12.617Z,13.35
2023-05-25T11:02:36.462Z,14.14
2023-05-25T11:04:00.517Z,14.28
2023-05-25T11:05:34.187Z,15.02
2023-05-25T11:07:20.387Z,15.51
2023-05-25T11:08:56.272Z,14.88
2023-05-25T11:10:29.898Z,14.65
2023-05-25T11:12:15.513Z,14.50
2023-05-25T11:13:45.103Z,13.97
2023-05-25T11:15:27.276Z,13.57
2023-05-25T11:17:12.177Z,14.11
2023-05-25T11:18:46.283Z,13.95
2023-05-25T11:20:19.968Z,14.06
2023-05-25T11:22:08.501Z,13.45
2023-05-25T11:23:42.175Z,14.05
2023-05-25T11:25:16.174Z,13.15
2023-05-25T11:27:01.029Z,12.96
2023-05-25T11:28:45.840Z,12.97
2023-05-25T11:30:19.510Z,13.28
2023-05-25T11:31:54.760Z,13.09
2023-05-25T11:33:40.229Z,12.84
2023-05-25T11:35:23.380Z,12.90
2023-05-25T11:36:57.732Z,12.34
2023-05-25T11:38:47.348Z,13.26
2023-05-25T11:40:29.148Z,12.25
2023-05-25T11:42:02.189Z,12.73
2023-05-25T11:43:36.781Z,13.15
2023-05-25T11:45:06.123Z,13.01
2023-05-25T11:46:31.051Z,12.27
2023-05-25T11:47:53.028Z,12.16
2023-05-25T11:49:30.134Z,12.90
2023-05-25T11:50:53.729Z,12.70
2023-05-25T11:52:27.672Z,11.28
2023-05-25T11:54:01.579Z,10.98
2023-05-25T11:55:46.742Z,10.57
2023-05-25T11:57:22.506Z,11.09
2023-05-25T11:59:03.175Z,10.90
2023-05-25T12:00:39.892Z,10.78
2023-05-25T12:02:22.534Z,11.09
2023-05-25T12:03:53.959Z,11.23
2023-05-25T12:05:23.392Z,11.95
2023-05-25T12:06:47.740Z,11.49
2023-05-25T12:08:17.007Z,11.50
2023-05-25T12:09:55.510Z,12.17
2023-05-25T12:11:29.448Z,11.58
2023-05-25T12:13:14.296Z,11.01
2023-05-25T12:14:59.025Z,11.33
2023-05-25T12:16:42.375Z,11.36
2023-05-25T12:18:06.262Z,11.90
2023-05-25T12:19:35.768Z,12.15
2023-05-25T12:21:00.737Z,11.46
2023-05-25T12:22:34.604Z,12.09
2023-05-25T12:24:01.378Z,11.99
2023-05-25T12:25:50.268Z,12.20
2023-05-25T12:27:15.097Z,12.11
2023-05-25T12:28:56.350Z,11.67
2023-05-25T12:30:28.136Z,12.60
2023-05-25T12:31:50.164Z,11.91
2023-05-25T12:33:23.380Z,12.22
2023-05-25T12:34:45.107Z,12.15
2023-05-25T12:36:25.351Z,11.87
2023-05-25T12:37:49.537Z,11.58
2023-05-25T12:39:26.284Z,11.60
2023-05-25T12:41:02.144Z,12.55
2023-05-25T12:42:43.142Z,12.12
2023-05-25T12:44:07.348Z,11.81
2023-05-25T12:45:41.124Z,11.51
2023-05-25T12:47:07.115Z,11.88
2023-05-25T12:48:56.197Z,11.47
2023-05-25T12:50:32.581Z,11.49
2023-05-25T12:52:19.046Z,11.55
2023-05-25T12:53:52.410Z,11.44
2023-05-25T12:55:26.158Z,11.53
2023-05-25T12:57:07.058Z,11.26
2023-05-25T12:58:40.948Z,11.14
2023-05-25T13:00:32.293Z,11.22
2023-05-25T13:02:14.736Z,11.94
2023-05-25T13:04:09.292Z,11.78
2023-05-25T13:05:44.499Z,11.75
2023-05-25T13:07:30.107Z,11.85
2023-05-25T13:09:11.155Z,11.38
2023-05-25T13:10:42.725Z,11.38
2023-05-25T13:12:24.675Z,11.26
2023-05-25T13:13:50.753Z,11.36
2023-05-25T13:15:24.270Z,11.96
2023-05-25T13:17:09.118Z,11.69
2023-05-25T13:18:50.332Z,11.59
2023-05-25T13:20:35.415Z,11.64
2023-05-25T13:22:08.579Z,10.90
2023-05-25T13:23:42.064Z,11.28
2023-05-25T13:25:06.190Z,11.73
2023-05-25T13:26:28.656Z,11.63
2023-05-25T13:28:00.145Z,12.49
2023-05-25T13:29:29.283Z,12.12
2023-05-25T13:31:04.817Z,11.92
2023-05-25T13:32:39.173Z,11.35
2023-05-25T13:34:12.994Z,11.63
2023-05-25T13:35:57.457Z,11.97
2023-05-25T13:37:33.916Z,10.94
2023-05-25T13:39:14.668Z,11.10
2023-05-25T13:41:00.194Z,11.81
2023-05-25T13:42:34.554Z,11.47
2023-05-25T13:44:17.421Z,10.96
2023-05-25T13:46:02.865Z,11.44
2023-05-25T13:47:36.938Z,11.33
2023-05-25T13:49:26.421Z,10.31
2023-05-25T13:50:55.668Z,11.66
2023-05-25T13:52:29.710Z,11.21
2023-05-25T13:54:06.158Z,10.42
2023-05-25T13:55:28.146Z,10.48
2023-05-25T13:57:03.711Z,11.15
2023-05-25T13:58:37.605Z,10.69
2023-05-25T14:00:07.110Z,10.76
2023-05-25T14:01:41.101Z,10.16
2023-05-25T14:03:02.917Z,9.70
2023-05-25T14:04:24.796Z,10.71
2023-05-25T14:05:58.242Z,10.36
2023-05-25T14:07:20.130Z,10.53
2023-05-25T14:08:41.386Z,10.76
2023-05-25T14:10:02.552Z,10.83
2023-05-25T14:11:39.599Z,10.76
2023-05-25T14:13:14.210Z,10.45
2023-05-25T14:14:47.695Z,11.64
2023-05-25T14:16:09.554Z,10.57
2023-05-25T14:17:41.421Z,11.15
2023-05-25T14:19:17.128Z,10.28
2023-05-25T14:20:42.897Z,10.92
2023-05-25T14:22:28.339Z,10.47
2023-05-25T14:24:03.768Z,10.62
2023-05-25T14:25:39.694Z,11.10
2023-05-25T14:27:17.429Z,10.43
2023-05-25T14:28:41.562Z,10.95
2023-05-25T14:30:17.202Z,10.49
2023-05-25T14:31:52.949Z,10.37
2023-05-25T14:33:17.242Z,10.70
2023-05-25T14:34:39.477Z,10.84
2023-05-25T14:36:23.733Z,10.92
2023-05-25T14:37:57.191Z,11.41
2023-05-25T14:39:32.866Z,11.03
2023-05-25T14:41:27.305Z,11.16
2023-05-25T14:42:56.720Z,11.21
2023-05-25T14:44:30.373Z,11.92
2023-05-25T14:46:15.659Z,10.88
2023-05-25T14:47:49.725Z,11.24
2023-05-25T14:49:17.297Z,11.59
2023-05-25T14:50:53.547Z,11.67
2023-05-25T14:52:36.412Z,10.65
2023-05-25T14:54:00.366Z,10.65
2023-05-25T14:55:45.582Z,10.49
2023-05-25T14:57:18.949Z,9.73
2023-05-25T14:58:52.226Z,10.26
2023-05-25T15:00:33.392Z,9.95
2023-05-25T15:01:55.472Z,9.56
2023-05-25T15:03:20.300Z,9.57
2023-05-25T15:05:00.732Z,9.44
2023-05-25T15:06:34.638Z,9.44
2023-05-25T15:08:07.353Z,9.48
2023-05-25T15:09:36.893Z,10.18
2023-05-25T15:11:12.453Z,9.56
2023-05-25T15:12:48.751Z,10.05
2023-05-25T15:14:22.326Z,9.73
2023-05-25T15:15:44.818Z,9.59
2023-05-25T15:17:31.365Z,9.62
2023-05-25T15:19:13.874Z,9.93
2023-05-25T15:21:05.712Z,10.43
2023-05-25T15:22:51.210Z,9.96
2023-05-25T15:24:27.248Z,9.56
2023-05-25T15:25:57.379Z,10.42
2023-05-25T15:27:28.975Z,10.05
2023-05-25T15:28:55.267Z,12.09
2023-05-25T15:30:27.736Z,12.41
2023-05-25T15:32:13.301Z,11.99
2023-05-25T15:33:54.292Z,10.88
2023-05-25T15:35:39.203Z,11.29
2023-05-25T15:37:13.143Z,9.44
2023-05-25T15:38:49.453Z,9.58
2023-05-25T15:40:34.817Z,9.09
2023-05-25T15:42:21.108Z,9.74
2023-05-25T15:43:48.728Z,9.84
2023-05-25T15:45:24.956Z,9.18
2023-05-25T15:46:49.096Z,8.83
2023-05-25T15:48:24.219Z,8.84
2023-05-25T15:50:02.286Z,9.00
2023-05-25T15:51:35.974Z,9.16
2023-05-25T15:53:21.689Z,8.82
2023-05-25T15:55:07.048Z,8.93
2023-05-25T15:56:40.634Z,8.93
2023-05-25T15:58:20.888Z,9.43
2023-05-25T16:00:02.798Z,8.93
2023-05-25T16:01:27.459Z,9.06
2023-05-25T16:03:02.004Z,8.94
2023-05-25T16:04:26.234Z,9.70
2023-05-25T16:06:12.063Z,9.78
2023-05-25T16:07:48.660Z,9.24
2023-05-25T16:09:22.145Z,9.48
2023-05-25T16:11:03.023Z,9.58
2023-05-25T16:12:45.524Z,9.64
2023-05-25T16:14:19.065Z,9.12
2023-05-25T16:15:50.051Z,9.42
2023-05-25T16:17:35.766Z,9.18
2023-05-25T16:19:14.115Z,9.93
2023-05-25T16:21:08.462Z,8.90
2023-05-25T16:22:41.966Z,9.71
2023-05-25T16:24:27.262Z,8.99
2023-05-25T16:26:15.589Z,9.46
2023-05-25T16:27:49.176Z,9.02
2023-05-25T16:29:22.654Z,9.20
2023-05-25T16:30:56.331Z,9.98
2023-05-25T16:32:32.691Z,9.42
2023-05-25T16:34:08.600Z,9.70
2023-05-25T16:36:03.333Z,8.94
2023-05-25T16:37:58.326Z,9.06
2023-05-25T16:39:34.654Z,9.31
2023-05-25T16:41:14.563Z,9.65
2023-05-25T16:43:02.481Z,9.69
2023-05-25T16:44:36.353Z,9.29
2023-05-25T16:46:17.248Z,8.99
2023-05-25T16:47:49.410Z,9.14
2023-05-25T16:49:34.862Z,9.79
2023-05-25T16:51:20.357Z,9.84
2023-05-25T16:52:52.603Z,9.01
2023-05-25T16:54:26.295Z,9.37
2023-05-25T16:56:00.149Z,9.76
2023-05-25T16:57:33.795Z,9.06
2023-05-25T16:59:00.021Z,9.53
2023-05-25T17:00:45.248Z,8.85
2023-05-25T17:02:26.200Z,9.19
2023-05-25T17:04:08.772Z,9.63
2023-05-25T17:05:42.228Z,9.41
2023-05-25T17:07:16.364Z,9.34
2023-05-25T17:08:52.305Z,9.35
2023-05-25T17:10:37.734Z,9.36
2023-05-25T17:12:12.746Z,8.75
2023-05-25T17:13:58.750Z,8.91
2023-05-25T17:15:44.725Z,8.77
2023-05-25T17:17:34.637Z,9.18
2023-05-25T17:19:19.735Z,9.41
2023-05-25T17:20:53.698Z,8.86
2023-05-25T17:22:16.129Z,8.90
2023-05-25T17:23:50.176Z,9.34
2023-05-25T17:25:21.896Z,8.95
2023-05-25T17:27:01.216Z,9.85
2023-05-25T17:28:48.288Z,9.65
2023-05-25T17:30:10.559Z,9.43
2023-05-25T17:31:46.259Z,10.06
2023-05-25T17:33:27.788Z,9.35
2023-05-25T17:34:52.942Z,9.55
2023-05-25T17:36:27.029Z,9.61
2023-05-25T17:37:51.341Z,9.37
2023-05-25T17:39:24.875Z,9.52
2023-05-25T17:41:06.027Z,9.30
2023-05-25T17:42:42.194Z,9.60
2023-05-25T17:44:27.605Z,8.75
2023-05-25T17:46:01.458Z,9.03
2023-05-25T17:47:35.891Z,9.20
2023-05-25T17:49:09.797Z,8.76
2023-05-25T17:50:43.490Z,9.55
2023-05-25T17:52:29.492Z,9.09
2023-05-25T17:54:06.606Z,9.54
2023-05-25T17:55:31.307Z,9.17
2023-05-25T17:57:04.872Z,8.72
2023-05-25T17:58:50.430Z,9.42
2023-05-25T18:00:26.657Z,8.76
2023-05-25T18:01:58.110Z,9.19
2023-05-25T18:03:41.164Z,9.59
2023-05-25T18:05:05.784Z,9.27
2023-05-25T18:06:52.180Z,9.34
2023-05-25T18:08:25.414Z,9.39
2023-05-25T18:09:55.034Z,9.31
2023-05-25T18:11:41.913Z,8.94
2023-05-25T18:13:27.636Z,9.45
2023-05-25T18:15:08.568Z,9.34
2023-05-25T18:16:42.475Z,8.53
2023-05-25T18:18:23.325Z,8.74
2023-05-25T18:19:56.740Z,8.78
2023-05-25T18:21:33.392Z,9.06
2023-05-25T18:23:04.497Z,8.85
2023-05-25T18:24:50.450Z,8.71
2023-05-25T18:26:36.640Z,8.55
2023-05-25T18:28:23.622Z,9.04
2023-05-25T18:30:17.998Z,8.76
2023-05-25T18:31:57.243Z,9.20
2023-05-25T18:33:42.687Z,8.86
2023-05-25T18:35:20.345Z,8.62
2023-05-25T18:36:44.681Z,8.69
2023-05-25T18:38:18.464Z,8.86
2023-05-25T18:40:11.666Z,9.25
2023-05-25T18:41:43.133Z,8.88
2023-05-25T18:43:19.568Z,8.66
2023-05-25T18:45:05.816Z,9.22
2023-05-25T18:46:52.344Z,8.92
2023-05-25T18:48:29.716Z,9.36
2023-05-25T18:50:16.341Z,9.45
2023-05-25T18:51:58.084Z,9.34
2023-05-25T18:53:44.861Z,9.44
2023-05-25T18:55:38.283Z,9.56
2023-05-25T18:57:21.046Z,9.99
2023-05-25T18:58:54.573Z,10.13
2023-05-25T19:00:16.462Z,10.54
2023-05-25T19:01:41.469Z,9.66
2023-05-25T19:03:22.332Z,10.11
2023-05-25T19:05:08.118Z,9.34
2023-05-25T19:06:42.865Z,9.93
2023-05-25T19:08:16.136Z,9.81
2023-05-25T19:09:42.400Z,10.13
2023-05-25T19:11:15.726Z,10.80
2023-05-25T19:12:49.766Z,10.65
2023-05-25T19:14:31.125Z,10.36
2023-05-25T19:15:55.293Z,10.59
2023-05-25T19:17:32.174Z,10.56
2023-05-25T19:19:16.207Z,10.60
2023-05-25T19:20:57.241Z,11.02
2023-05-25T19:22:42.528Z,11.07
2023-05-25T19:24:18.993Z,10.49
2023-05-25T19:25:48.045Z,10.74
2023-05-25T19:27:23.318Z,10.88
2023-05-25T19:28:57.369Z,11.09
2023-05-25T19:30:45.333Z,10.99
2023-05-25T19:32:26.058Z,10.94
2023-05-25T19:33:59.233Z,11.33
2023-05-25T19:35:32.613Z,11.20
2023-05-25T19:37:11.539Z,11.13
2023-05-25T19:38:46.255Z,10.99
2023-05-25T19:40:11.736Z,10.68
2023-05-25T19:41:45.869Z,10.61
2023-05-25T19:43:31.235Z,10.96
2023-05-25T19:45:10.769Z,10.79
2023-05-25T19:47:05.396Z,11.11
2023-05-25T19:48:51.755Z,10.84
2023-05-25T19:50:15.667Z,10.31
2023-05-25T19:52:10.774Z,10.05
2023-05-25T19:53:58.150Z,9.80
2023-05-25T19:55:44.183Z,10.50
2023-05-25T19:57:18.594Z,9.83
2023-05-25T19:58:52.483Z,9.55
2023-05-25T20:00:28.483Z,9.36
2023-05-25T20:02:05.227Z,9.44
2023-05-25T20:03:51.941Z,9.43
2023-05-25T20:05:37.402Z,8.89
2023-05-25T20:07:18.138Z,9.33
2023-05-25T20:08:51.953Z,8.27
2023-05-25T20:10:14.137Z,8.79
2023-05-25T20:11:46.015Z,8.80
2023-05-25T20:13:32.712Z,8.75
2023-05-25T20:15:18.945Z,9.19
2023-05-25T20:16:55.783Z,8.84
2023-05-25T20:18:28.032Z,9.36
2023-05-25T20:19:54.187Z,9.06
2023-05-25T20:21:20.943Z,8.45
2023-05-25T20:22:57.783Z,8.56
2023-05-25T20:24:21.971Z,9.10
2023-05-25T20:25:47.207Z,8.49
2023-05-25T20:27:19.060Z,9.06
2023-05-25T20:28:48.755Z,8.94
2023-05-25T20:30:26.261Z,8.80
2023-05-25T20:32:07.748Z,8.47
2023-05-25T20:33:53.338Z,8.24
2023-05-25T20:35:28.350Z,8.22
2023-05-25T20:37:11.376Z,8.32
2023-05-25T20:38:33.435Z,7.88
2023-05-25T20:40:00.394Z,8.17